Time;durP1;ratioP1;P1;durP2;ratioP2;P2;SDS_P1;SDS_P2;PMS_P1;PMS_P2;Temp;Humidity;BMP_temperature;BMP_pressure;BME280_temperature;BME280_humidity;BME280_pressure;Samples;Min_cycle;Max_cycle;Signal;HPM_P1;HPM_P2
2022/05/21 00:01:47;;;;;;;;;;;;;;;19.78;60.28;99611.63;4333346;33;20314;-84
2022/05/21 00:04:12;;;;;;;;;;;;;;;19.69;60.26;99609.66;4333333;33;20289;-84
2022/05/21 00:06:40;;;;;;;;;;;;;;;19.76;60.27;99604.75;4333505;33;20303;-84
2022/05/21 00:09:06;;;;;;;;;;;;;;;19.66;60.26;99606.41;4334008;33;19979;-84
2022/05/21 00:11:31;;;;;;;;;;;;;;;19.74;60.27;99604.03;4333568;33;20219;-83
2022/05/21 00:13:56;;;;;;;;;;;;;;;19.72;60.27;99600.66;4339525;33;20003;-83
2022/05/21 00:16:22;;;;;;;;;;;;;;;19.88;60.28;99603.91;4335021;33;20024;-83
2022/05/21 00:18:48;;;;;;;;;;;;;;;19.73;60.27;99591.78;4348718;33;20022;-83
2022/05/21 00:21:13;;;;;;;;;;;;;;;19.68;60.26;99602.69;4348462;33;19972;-83
2022/05/21 00:23:38;;;;;;;;;;;;;;;19.75;60.27;99587.22;4348514;33;20254;-84
2022/05/21 00:26:05;;;;;;;;;;;;;;;19.73;60.27;99584.72;4348463;33;19989;-84
2022/05/21 00:28:30;;;;;;;;;;;;;;;19.65;60.26;99586.22;4348556;33;19979;-85
2022/05/21 00:30:55;;;;;;;;;;;;;;;19.71;60.27;99585.78;4348561;33;20015;-84
2022/05/21 00:33:21;;;;;;;;;;;;;;;19.86;60.28;99582.84;4334995;33;20003;-85
2022/05/21 00:35:49;;;;;;;;;;;;;;;19.87;60.28;99581.91;4348486;33;19980;-85
2022/05/21 00:38:14;;;;;;;;;;;;;;;19.92;60.29;99569.22;4349155;33;19979;-85
2022/05/21 00:40:39;;;;;;;;;;;;;;;19.39;60.25;99575.66;4335730;33;19994;-84
2022/05/21 00:43:05;;;;;;;;;;;;;;;19.67;60.26;99569.31;4348192;33;19979;-84
2022/05/21 00:45:30;;;;;;;;;;;;;;;19.63;60.27;99562.53;4323366;33;20031;-84
2022/05/21 00:47:56;;;;;;;;;;;;;;;19.61;60.26;99559.16;4349227;33;20011;-84
2022/05/21 00:50:22;;;;;;;;;;;;;;;19.67;60.26;99560.53;4336002;33;19994;-85
2022/05/21 00:52:47;;;;;;;;;;;;;;;19.63;60.26;99562.53;4335772;33;20375;-85
2022/05/21 00:55:15;;;;;;;;;;;;;;;19.65;60.26;99565.94;4349076;33;19999;-86
2022/05/21 00:57:42;;;;;;;;;;;;;;;19.68;60.26;99578.91;4335870;33;20605;-85
2022/05/21 01:00:12;;;;;;;;;;;;;;;19.68;60.26;99580.72;4335837;33;19988;-85
2022/05/21 01:02:42;;;;;;;;;;;;;;;19.77;60.27;99580.88;4349445;33;20332;-85
2022/05/21 01:05:09;;;;;;;;;;;;;;;19.66;60.26;99591.41;4335748;33;20346;-85
2022/05/21 01:07:38;;;;;;;;;;;;;;;19.47;60.26;99585.69;4335892;33;19991;-84
2022/05/21 01:10:03;;;;;;;;;;;;;;;19.42;60.25;99577.28;4335787;33;20357;-84
2022/05/21 01:12:30;;;;;;;;;;;;;;;19.57;60.26;99576.19;4335525;33;19999;-83
2022/05/21 01:14:56;;;;;;;;;;;;;;;19.69;60.26;99574.47;4335634;33;20387;-84
2022/05/21 01:17:21;;;;;;;;;;;;;;;19.64;60.26;99580.09;4323727;33;20007;-83
2022/05/21 01:19:57;;;;;;;;;;;;;;;19.70;60.27;99587.56;4349527;33;19990;-83
2022/05/21 01:22:24;;;;;;;;;;;;;;;19.53;60.25;99596.69;4349673;33;20034;-83
2022/05/21 01:24:49;;;;;;;;;;;;;;;19.88;60.27;99593.31;4349123;33;19975;-84
2022/05/21 01:27:14;;;;;;;;;;;;;;;19.49;60.25;99589.91;4348746;33;19994;-84
2022/05/21 01:29:39;;;;;;;;;;;;;;;19.42;60.25;99585.19;4335237;33;19999;-84
2022/05/21 01:32:05;;;;;;;;;;;;;;;19.40;60.25;99587.06;4322994;33;19987;-84
2022/05/21 01:34:30;;;;;;;;;;;;;;;19.58;60.26;99580.53;4349001;33;19976;-84
2022/05/21 01:36:56;;;;;;;;;;;;;;;19.67;60.26;99574.59;4335346;33;19994;-85
2022/05/21 01:39:21;;;;;;;;;;;;;;;19.71;60.27;99570.78;4335647;33;20035;-86
2022/05/21 01:41:46;;;;;;;;;;;;;;;19.62;60.25;99571.41;4323272;33;20014;-85
2022/05/21 01:46:56;;;;;;;;;;;;;;;19.56;60.26;99578.00;4337453;33;20031;-84
2022/05/21 01:49:21;;;;;;;;;;;;;;;19.44;60.25;99578.00;4348622;33;19999;-84
2022/05/21 01:51:46;;;;;;;;;;;;;;;19.50;60.26;99583.69;4335292;33;20003;-84
2022/05/21 01:54:11;;;;;;;;;;;;;;;19.54;60.26;99595.75;4335278;33;20015;-84
2022/05/21 01:56:37;;;;;;;;;;;;;;;19.71;60.27;99607.75;4348790;33;19986;-85
2022/05/21 01:59:02;;;;;;;;;;;;;;;19.62;60.25;99643.56;4335398;33;20389;-84
2022/05/21 02:01:28;;;;;;;;;;;;;;;19.56;60.26;99704.72;4335336;33;20091;-84
2022/05/21 02:03:53;;;;;;;;;;;;;;;19.49;60.25;99726.34;4335119;33;19990;-83
2022/05/21 02:06:18;;;;;;;;;;;;;;;19.55;60.26;99696.91;4348677;33;19999;-85
2022/05/21 02:08:43;;;;;;;;;;;;;;;19.31;60.24;99681.78;4348663;33;20333;-85
2022/05/21 02:11:09;;;;;;;;;;;;;;;19.53;60.25;99722.53;4322797;33;19991;-86
2022/05/21 02:13:35;;;;;;;;;;;;;;;19.74;60.26;99729.00;4334862;33;20003;-86
2022/05/21 02:16:00;;;;;;;;;;;;;;;19.95;60.28;99736.38;4335206;33;19987;-86
2022/05/21 02:18:25;;;;;;;;;;;;;;;19.99;60.28;99737.84;4335007;33;19999;-85
2022/05/21 02:20:51;;;;;;;;;;;;;;;20.08;60.29;99740.66;4335031;33;19987;-84
2022/05/21 02:23:17;;;;;;;;;;;;;;;20.32;60.30;99735.41;4348444;33;20003;-84
2022/05/21 02:25:42;;;;;;;;;;;;;;;20.41;60.30;99728.66;4349657;33;19967;-84
2022/05/21 02:28:07;;;;;;;;;;;;;;;20.57;60.31;99723.06;4336938;33;20029;-84
2022/05/21 02:30:33;;;;;;;;;;;;;;;20.66;60.31;99722.41;4350322;33;20326;-83
2022/05/21 02:32:58;;;;;;;;;;;;;;;20.88;60.33;99722.50;4336749;33;19984;-84
2022/05/21 02:35:23;;;;;;;;;;;;;;;20.96;60.33;99716.63;4336368;33;20341;-84
2022/05/21 02:40:32;;;;;;;;;;;;;;;21.28;60.34;99728.28;4350441;33;20055;-84
2022/05/21 02:42:57;;;;;;;;;;;;;;;21.20;60.34;99732.44;4350365;33;19979;-84
2022/05/21 02:45:24;;;;;;;;;;;;;;;20.98;60.32;99731.44;4336542;33;19979;-84
2022/05/21 02:47:49;;;;;;;;;;;;;;;20.87;60.33;99728.75;4350134;33;20019;-84
2022/05/21 02:50:15;;;;;;;;;;;;;;;21.03;60.33;99733.72;4336633;33;20345;-85
2022/05/21 02:52:40;;;;;;;;;;;;;;;21.09;60.34;99731.47;4336687;33;20051;-85
2022/05/21 02:55:06;;;;;;;;;;;;;;;21.10;60.34;99733.16;4336680;33;19987;-86
2022/05/21 02:57:31;;;;;;;;;;;;;;;21.13;60.34;99729.44;4336640;33;19983;-86
2022/05/21 02:59:59;;;;;;;;;;;;;;;21.15;60.33;99736.31;4324451;33;20326;-85
2022/05/21 03:02:25;;;;;;;;;;;;;;;21.24;60.33;99742.72;4350119;33;19995;-86
2022/05/21 03:04:50;;;;;;;;;;;;;;;21.28;60.34;99751.25;4350244;33;20265;-86
2022/05/21 03:07:15;;;;;;;;;;;;;;;21.23;60.34;99735.72;4336969;33;19988;-85
2022/05/21 03:12:24;;;;;;;;;;;;;;;21.36;60.35;99725.06;4354586;33;19990;-86
2022/05/21 03:14:50;;;;;;;;;;;;;;;21.08;60.33;99711.25;4349916;33;20026;-85
2022/05/21 03:17:15;;;;;;;;;;;;;;;21.10;60.34;99698.75;4336576;33;19983;-86
2022/05/21 03:19:40;;;;;;;;;;;;;;;21.23;60.33;99698.66;4336485;33;20054;-85
2022/05/21 03:22:06;;;;;;;;;;;;;;;21.17;60.33;99700.94;4336488;33;20326;-85
2022/05/21 03:24:31;;;;;;;;;;;;;;;21.19;60.34;99715.72;4336440;33;19979;-86
2022/05/21 03:26:56;;;;;;;;;;;;;;;21.27;60.34;99725.75;4335869;33;20241;-87
2022/05/21 03:29:22;;;;;;;;;;;;;;;21.28;60.34;99719.50;4336547;33;19987;-85
2022/05/21 03:31:47;;;;;;;;;;;;;;;21.12;60.34;99720.66;4336192;33;20027;-84
2022/05/21 03:34:12;;;;;;;;;;;;;;;21.04;60.33;99704.50;4349446;33;20023;-84
2022/05/21 03:36:38;;;;;;;;;;;;;;;21.01;60.34;99702.09;4348841;33;19998;-84
2022/05/21 03:39:03;;;;;;;;;;;;;;;21.17;60.33;99700.94;4336216;33;20227;-84
2022/05/21 03:41:29;;;;;;;;;;;;;;;21.08;60.33;99702.47;4335722;33;19979;-84
2022/05/21 03:43:55;;;;;;;;;;;;;;;21.15;60.33;99699.25;4349797;33;20027;-86
2022/05/21 03:46:20;;;;;;;;;;;;;;;21.17;60.33;99674.47;4349328;33;20047;-85
2022/05/21 03:48:45;;;;;;;;;;;;;;;21.26;60.34;99650.78;4336012;33;19995;-84
2022/05/21 03:51:11;;;;;;;;;;;;;;;21.41;60.35;99643.47;4336049;33;20003;-87
2022/05/21 03:53:36;;;;;;;;;;;;;;;21.42;60.35;99642.50;4336004;33;20026;-85
2022/05/21 03:56:02;;;;;;;;;;;;;;;21.60;60.36;99617.22;4336035;33;19991;-85
2022/05/21 03:58:27;;;;;;;;;;;;;;;21.58;60.36;99600.59;4336037;33;19979;-86
2022/05/21 04:00:52;;;;;;;;;;;;;;;21.70;60.36;99588.16;4335820;33;20011;-86
2022/05/21 04:03:17;;;;;;;;;;;;;;;21.78;60.37;99574.31;4335330;33;20341;-85
2022/05/21 04:05:43;;;;;;;;;;;;;;;21.94;60.37;99582.69;4335662;33;19984;-85
2022/05/21 04:08:08;;;;;;;;;;;;;;;21.94;60.37;99590.63;4335915;33;20337;-85
2022/05/21 04:10:33;;;;;;;;;;;;;;;22.12;60.39;99588.31;4349351;33;19975;-84
2022/05/21 04:12:58;;;;;;;;;;;;;;;22.22;60.39;99587.44;4349281;32;20317;-85
2022/05/21 04:15:25;;;;;;;;;;;;;;;22.47;60.40;99588.87;4335785;33;20042;-87
2022/05/21 04:17:51;;;;;;;;;;;;;;;22.32;60.39;99580.41;4336083;33;20364;-87
2022/05/21 04:20:17;;;;;;;;;;;;;;;22.59;60.41;99576.41;4335894;33;19975;-86
2022/05/21 04:22:42;;;;;;;;;;;;;;;22.50;60.41;99570.09;4349322;33;19986;-86
2022/05/21 04:25:08;;;;;;;;;;;;;;;22.52;60.41;99562.00;4335833;33;20344;-87
2022/05/21 04:27:34;;;;;;;;;;;;;;;22.67;60.42;99569.47;4335789;33;19995;-87
2022/05/21 04:29:59;;;;;;;;;;;;;;;22.56;60.40;99569.56;4335888;33;20397;-87
2022/05/21 04:32:25;;;;;;;;;;;;;;;22.79;60.42;99572.06;4349250;33;20006;-86
2022/05/21 04:34:50;;;;;;;;;;;;;;;22.75;60.42;99594.53;4335749;33;20007;-86
2022/05/21 04:37:15;;;;;;;;;;;;;;;22.83;60.43;99600.91;4349250;33;20321;-87
2022/05/21 04:39:40;;;;;;;;;;;;;;;22.94;60.42;99610.59;4335927;33;19990;-87
2022/05/21 04:42:06;;;;;;;;;;;;;;;22.76;60.42;99634.22;4323292;33;19994;-86
2022/05/21 04:44:34;;;;;;;;;;;;;;;22.69;60.41;99643.63;4335585;33;20027;-86
2022/05/21 04:46:59;;;;;;;;;;;;;;;22.68;60.42;99652.56;4335664;33;20065;-86
2022/05/21 04:49:24;;;;;;;;;;;;;;;22.67;60.41;99674.75;4348998;33;19984;-86
2022/05/21 04:51:49;;;;;;;;;;;;;;;22.81;60.43;99665.66;4349377;33;19971;-86
2022/05/21 04:54:15;;;;;;;;;;;;;;;22.89;60.43;99666.72;4335754;33;19991;-86
2022/05/21 04:56:40;;;;;;;;;;;;;;;23.01;60.43;99677.28;4335755;33;19995;-86
2022/05/21 04:59:05;;;;;;;;;;;;;;;22.82;60.42;99676.19;4349596;33;19985;-86
2022/05/21 05:01:31;;;;;;;;;;;;;;;22.82;60.42;99673.53;4349701;33;19997;-86
2022/05/21 05:03:56;;;;;;;;;;;;;;;22.71;60.41;99668.22;4351389;33;19997;-85
2022/05/21 05:06:22;;;;;;;;;;;;;;;22.38;60.40;99669.22;4351142;33;20390;-85
2022/05/21 05:08:47;;;;;;;;;;;;;;;22.60;60.42;99685.06;4349371;33;20302;-87
2022/05/21 05:11:12;;;;;;;;;;;;;;;22.61;60.42;99696.50;4348956;33;22069;-86
2022/05/21 05:13:37;;;;;;;;;;;;;;;22.63;60.42;99690.09;4349431;33;19995;-85
2022/05/21 05:16:03;;;;;;;;;;;;;;;22.57;60.41;99679.16;4335766;33;20026;-86
2022/05/21 05:18:30;;;;;;;;;;;;;;;22.57;60.41;99692.44;4335918;33;19992;-86
2022/05/21 05:20:56;;;;;;;;;;;;;;;22.42;60.41;99709.59;4335896;33;19983;-85
2022/05/21 05:23:21;;;;;;;;;;;;;;;22.48;60.41;99702.00;4335856;33;20023;-85
2022/05/21 05:25:46;;;;;;;;;;;;;;;22.54;60.41;99708.59;4323213;33;20010;-85
2022/05/21 05:28:18;;;;;;;;;;;;;;;22.26;60.40;99720.63;4348839;33;20608;-86
2022/05/21 05:30:43;;;;;;;;;;;;;;;22.28;60.40;99719.53;4349181;33;19971;-85
2022/05/21 05:33:09;;;;;;;;;;;;;;;22.02;60.39;99724.25;4335421;33;20002;-87
2022/05/21 05:35:34;;;;;;;;;;;;;;;22.02;60.38;99747.25;4335503;33;19991;-86
2022/05/21 05:38:03;;;;;;;;;;;;;;;22.13;60.39;99739.31;4335851;33;20005;-86
2022/05/21 05:40:28;;;;;;;;;;;;;;;22.24;60.39;99736.66;4347848;33;21113;-87
2022/05/21 05:42:53;;;;;;;;;;;;;;;22.18;60.40;99737.13;4348941;33;19972;-86
2022/05/21 05:45:19;;;;;;;;;;;;;;;22.14;60.39;99735.69;4335306;33;20322;-86
2022/05/21 05:47:44;;;;;;;;;;;;;;;22.04;60.39;99734.75;4348809;33;20242;-87
2022/05/21 05:50:10;;;;;;;;;;;;;;;21.92;60.37;99731.22;4335491;33;20276;-86
2022/05/21 05:52:35;;;;;;;;;;;;;;;22.05;60.38;99721.38;4348867;33;19971;-87
2022/05/21 05:55:00;;;;;;;;;;;;;;;21.93;60.38;99708.22;4335364;33;20268;-87
2022/05/21 05:57:25;;;;;;;;;;;;;;;22.17;60.38;99722.19;4349329;33;19975;-87
2022/05/21 05:59:51;;;;;;;;;;;;;;;22.12;60.39;99719.06;4348321;33;19986;-86
2022/05/21 06:05:04;;;;;;;;;;;;;;;22.07;60.38;99721.25;4337551;33;20618;-86
2022/05/21 06:07:29;;;;;;;;;;;;;;;22.05;60.38;99725.84;4348918;33;20313;-87
2022/05/21 06:10:01;;;;;;;;;;;;;;;22.07;60.38;99729.19;4335463;33;19998;-87
2022/05/21 06:12:26;;;;;;;;;;;;;;;21.93;60.37;99718.81;4335709;33;20042;-85
2022/05/21 06:14:53;;;;;;;;;;;;;;;22.08;60.38;99730.88;4335271;33;19987;-85
2022/05/21 06:17:18;;;;;;;;;;;;;;;22.20;60.39;99737.00;4335243;33;20027;-86
2022/05/21 06:19:43;;;;;;;;;;;;;;;21.90;60.37;99737.59;4348742;33;20274;-88
2022/05/21 06:22:09;;;;;;;;;;;;;;;21.70;60.36;99760.38;4334680;33;22196;-88
2022/05/21 06:24:35;;;;;;;;;;;;;;;21.31;60.34;99762.50;4335030;33;19987;-87
2022/05/21 06:27:00;;;;;;;;;;;;;;;21.25;60.35;99783.28;4348662;33;19988;-86
2022/05/21 06:29:25;;;;;;;;;;;;;;;20.93;60.32;99778.56;4347142;33;20362;-86
2022/05/21 06:31:51;;;;;;;;;;;;;;;20.92;60.32;99755.72;4334751;33;20014;-87
2022/05/21 06:34:16;;;;;;;;;;;;;;;20.85;60.33;99773.00;4348583;33;20002;-86
2022/05/21 06:36:41;;;;;;;;;;;;;;;20.62;60.32;99747.41;4334601;33;19995;-84
2022/05/21 06:39:06;;;;;;;;;;;;;;;20.75;60.31;99748.19;4322012;33;22368;-86
2022/05/21 06:41:31;;;;;;;;;;;;;;;20.58;60.31;99748.56;4334217;33;20034;-86
2022/05/21 06:43:57;;;;;;;;;;;;;;;20.54;60.30;99738.22;4334395;33;19991;-85
2022/05/21 06:46:22;;;;;;;;;;;;;;;20.49;60.30;99736.88;4334580;33;20029;-85
2022/05/21 06:48:47;;;;;;;;;;;;;;;20.62;60.31;99724.44;4348095;33;20022;-86
2022/05/21 06:51:13;;;;;;;;;;;;;;;20.46;60.29;99718.59;4334392;33;20051;-85
2022/05/21 06:53:40;;;;;;;;;;;;;;;20.55;60.31;99715.25;4322265;33;20010;-85
2022/05/21 06:56:12;;;;;;;;;;;;;;;20.73;60.31;99705.97;4322846;33;20040;-85
2022/05/21 06:58:37;;;;;;;;;;;;;;;20.69;60.31;99695.72;4336477;33;20349;-85
2022/05/21 07:01:02;;;;;;;;;;;;;;;20.84;60.31;99690.16;4347777;33;20059;-86
2022/05/21 07:03:28;;;;;;;;;;;;;;;20.94;60.33;99690.28;4333737;33;23469;-86
2022/05/21 07:08:37;;;;;;;;;;;;;;;21.13;60.33;99679.16;4348093;33;19990;-86
2022/05/21 07:11:02;;;;;;;;;;;;;;;21.34;60.35;99679.34;4348575;33;20010;-86
2022/05/21 07:13:30;;;;;;;;;;;;;;;21.53;60.35;99682.25;4324222;33;19979;-86
2022/05/21 07:15:56;;;;;;;;;;;;;;;21.68;60.36;99675.72;4336550;33;19971;-86
2022/05/21 07:18:21;;;;;;;;;;;;;;;21.72;60.37;99684.25;4336478;33;20018;-87
2022/05/21 07:20:46;;;;;;;;;;;;;;;21.83;60.37;99686.91;4324337;33;20035;-87
2022/05/21 07:23:12;;;;;;;;;;;;;;;21.76;60.36;99691.84;4336434;33;20006;-87
2022/05/21 07:25:37;;;;;;;;;;;;;;;21.81;60.36;99685.34;4336495;33;19976;-87
2022/05/21 07:28:02;;;;;;;;;;;;;;;21.85;60.37;99689.44;4324128;33;20033;-87
2022/05/21 07:30:28;;;;;;;;;;;;;;;22.09;60.38;99687.50;4336499;33;20306;-87
2022/05/21 07:32:55;;;;;;;;;;;;;;;22.20;60.39;99673.37;4336350;33;19999;-87
2022/05/21 07:35:20;;;;;;;;;;;;;;;22.39;60.40;99683.31;4348747;33;19971;-87
2022/05/21 07:37:46;;;;;;;;;;;;;;;22.62;60.40;99683.09;4349713;33;20323;-87
2022/05/21 07:40:11;;;;;;;;;;;;;;;22.65;60.41;99682.84;4349749;33;19971;-87
2022/05/21 07:42:36;;;;;;;;;;;;;;;22.76;60.41;99673.19;4336274;33;19979;-87
2022/05/21 07:45:02;;;;;;;;;;;;;;;23.01;60.42;99683.44;4336190;33;19983;-86
2022/05/21 07:47:28;;;;;;;;;;;;;;;23.15;60.43;99690.22;4336157;33;19964;-87
2022/05/21 07:49:56;;;;;;;;;;;;;;;23.22;60.44;99697.56;4335886;33;20027;-86
2022/05/21 07:52:21;;;;;;;;;;;;;;;23.45;60.45;99695.59;4336402;33;20014;-87
2022/05/21 07:54:46;;;;;;;;;;;;;;;23.63;60.46;99709.09;4349697;33;19988;-87
2022/05/21 07:57:11;;;;;;;;;;;;;;;23.70;60.46;99715.59;4349552;33;19972;-86
2022/05/21 07:59:36;;;;;;;;;;;;;;;23.74;60.47;99722.31;4335912;33;19995;-86
2022/05/21 08:02:02;;;;;;;;;;;;;;;24.04;60.47;99742.72;4349482;33;19992;-87
2022/05/21 08:04:27;;;;;;;;;;;;;;;24.12;60.49;99737.53;4349558;33;19976;-85
2022/05/21 08:06:52;;;;;;;;;;;;;;;24.24;60.49;99737.44;4335925;33;20067;-85
2022/05/21 08:09:18;;;;;;;;;;;;;;;24.24;60.49;99740.09;4336018;33;20035;-86
2022/05/21 08:11:43;;;;;;;;;;;;;;;24.38;60.50;99729.13;4348450;33;20031;-86
2022/05/21 08:14:08;;;;;;;;;;;;;;;24.53;60.51;99732.22;4323651;33;20238;-86
2022/05/21 08:16:34;;;;;;;;;;;;;;;24.36;60.49;99742.53;4335949;33;19975;-86
2022/05/21 08:19:01;;;;;;;;;;;;;;;24.41;60.49;99735.00;4336015;33;20324;-87
2022/05/21 08:21:26;;;;;;;;;;;;;;;24.37;60.50;99724.75;4336336;33;19991;-86
2022/05/21 08:29:20;;;;;;;;;;;;;;;24.51;60.50;99729.69;4349522;33;20002;-85
2022/05/21 08:31:45;;;;;;;;;;;;;;;24.65;60.51;99720.47;4349220;33;19991;-86
2022/05/21 08:34:10;;;;;;;;;;;;;;;24.84;60.52;99711.63;4349397;33;19999;-86
2022/05/21 08:36:35;;;;;;;;;;;;;;;24.89;60.52;99718.22;4335796;33;19994;-86
2022/05/21 08:39:01;;;;;;;;;;;;;;;24.89;60.52;99714.72;4335845;33;20014;-85
2022/05/21 08:41:32;;;;;;;;;;;;;;;25.06;60.52;99714.00;4349180;33;19987;-86
2022/05/21 08:44:02;;;;;;;;;;;;;;;25.45;60.55;99709.44;4336646;33;19972;-86
2022/05/21 08:46:47;;;;;;;;;;;;;;;25.52;60.55;99707.03;4323633;33;20326;-85
2022/05/21 08:49:19;;;;;;;;;;;;;;;25.15;60.54;99713.19;4337734;33;19992;-86
2022/05/21 08:52:07;;;;;;;;;;;;;;;24.90;60.52;99717.25;4336740;33;19999;-85
2022/05/21 08:54:40;;;;;;;;;;;;;;;24.65;60.51;99725.78;4342803;33;19979;-86
2022/05/21 08:57:07;;;;;;;;;;;;;;;24.63;60.51;99723.28;4335880;33;20002;-85
2022/05/21 08:59:35;;;;;;;;;;;;;;;24.57;60.50;99731.78;4335831;33;19987;-86
2022/05/21 09:02:01;;;;;;;;;;;;;;;24.55;60.51;99724.91;4335904;33;20359;-86
2022/05/21 09:04:26;;;;;;;;;;;;;;;24.58;60.51;99717.50;4335425;33;19991;-85
2022/05/21 09:06:55;;;;;;;;;;;;;;;24.90;60.52;99725.22;4335512;33;19975;-86
2022/05/21 09:09:40;;;;;;;;;;;;;;;25.47;60.56;99709.31;4335567;33;20010;-86
2022/05/21 09:12:09;;;;;;;;;;;;;;;25.60;60.56;99715.16;4335565;33;20014;-85
2022/05/21 09:14:49;;;;;;;;;;;;;;;25.73;60.57;99715.69;4335465;33;19971;-86
2022/05/21 09:17:15;;;;;;;;;;;;;;;26.06;60.59;99711.63;4336780;33;20482;-87
2022/05/21 09:19:42;;;;;;;;;;;;;;;26.35;60.60;99714.13;4349130;33;19988;-86
2022/05/21 09:22:10;;;;;;;;;;;;;;;26.48;60.61;99722.59;4335522;33;20265;-85
2022/05/21 09:24:38;;;;;;;;;;;;;;;26.71;60.62;99714.13;4323321;33;20024;-85
2022/05/21 09:27:04;;;;;;;;;;;;;;;26.61;60.61;99722.25;4349052;33;19975;-86
2022/05/21 09:29:33;;;;;;;;;;;;;;;26.68;60.62;99717.13;4323370;33;19991;-86
2022/05/21 09:31:59;;;;;;;;;;;;;;;26.61;60.61;99715.06;4323265;33;20038;-86
2022/05/21 09:34:31;;;;;;;;;;;;;;;26.84;60.62;99722.62;4348699;33;19984;-86
2022/05/21 09:36:56;;;;;;;;;;;;;;;27.01;60.63;99708.44;4335315;33;19987;-85
2022/05/21 09:39:40;;;;;;;;;;;;;;;27.05;60.63;99711.63;4348765;33;19990;-85
2022/05/21 09:42:09;;;;;;;;;;;;;;;27.09;60.64;99708.50;4348727;33;20005;-85
2022/05/21 09:47:22;;;;;;;;;;;;;;;26.94;60.63;99715.34;4348706;33;20051;-86
2022/05/21 09:50:03;;;;;;;;;;;;;;;26.65;60.62;99728.94;4335163;33;20031;-86
2022/05/21 09:52:29;;;;;;;;;;;;;;;26.82;60.63;99732.63;4334990;33;20054;-85
2022/05/21 09:54:54;;;;;;;;;;;;;;;26.88;60.63;99713.28;4322793;33;19995;-86
2022/05/21 09:57:24;;;;;;;;;;;;;;;27.15;60.64;99707.03;4334687;33;20528;-86
2022/05/21 10:00:09;;;;;;;;;;;;;;;27.47;60.66;99725.13;4335087;33;19987;-85
2022/05/21 10:02:43;;;;;;;;;;;;;;;27.63;60.66;99717.22;4335053;33;20003;-86
2022/05/21 10:05:08;;;;;;;;;;;;;;;27.57;60.66;99723.16;4348422;33;19971;-86
2022/05/21 10:13:07;;;;;;;;;;;;;;;28.02;60.69;99703.34;4336642;33;20042;-84
2022/05/21 10:15:39;;;;;;;;;;;;;;;28.14;60.70;99704.72;4348368;33;19987;-84
2022/05/21 10:18:10;;;;;;;;;;;;;;;28.31;60.71;99702.97;4334633;33;19998;-84
2022/05/21 10:20:36;;;;;;;;;;;;;;;28.42;60.71;99703.50;4334687;33;20002;-83
2022/05/21 10:23:17;;;;;;;;;;;;;;;28.50;60.72;99701.84;4334828;33;19991;-84
2022/05/21 10:25:59;;;;;;;;;;;;;;;28.48;60.71;99709.19;4334708;33;20253;-83
2022/05/21 10:28:42;;;;;;;;;;;;;;;28.47;60.72;99699.50;4322560;33;20346;-82
2022/05/21 10:31:27;;;;;;;;;;;;;;;28.15;60.70;99709.06;4348144;33;19994;-84
2022/05/21 10:34:11;;;;;;;;;;;;;;;28.48;60.72;99714.56;4348318;33;20005;-83
2022/05/21 10:36:58;;;;;;;;;;;;;;;28.59;60.72;99699.00;4334418;33;20086;-83
2022/05/21 10:39:35;;;;;;;;;;;;;;;28.76;60.73;99705.19;4348267;33;20471;-83
2022/05/21 10:42:16;;;;;;;;;;;;;;;28.61;60.72;99696.97;4348113;33;19991;-84
2022/05/21 10:44:47;;;;;;;;;;;;;;;28.49;60.72;99702.84;4347864;33;20047;-84
2022/05/21 10:47:12;;;;;;;;;;;;;;;28.28;60.70;99704.13;4349680;33;19995;-83
2022/05/21 10:49:57;;;;;;;;;;;;;;;28.64;60.72;99704.72;4336226;33;19987;-83
2022/05/21 10:52:22;;;;;;;;;;;;;;;28.81;60.73;99705.53;4336466;33;19980;-84
2022/05/21 10:55:10;;;;;;;;;;;;;;;28.73;60.73;99709.06;4349863;33;19994;-83
2022/05/21 10:57:38;;;;;;;;;;;;;;;28.46;60.72;99712.03;4328219;33;20333;-84
2022/05/21 11:00:04;;;;;;;;;;;;;;;28.45;60.72;99707.69;4336331;33;20059;-84
2022/05/21 11:02:50;;;;;;;;;;;;;;;28.64;60.73;99702.03;4349819;33;20027;-83
2022/05/21 11:05:15;;;;;;;;;;;;;;;28.69;60.72;99706.88;4341381;33;20084;-85
2022/05/21 11:07:45;;;;;;;;;;;;;;;28.70;60.73;99703.19;4349801;33;19988;-84
2022/05/21 11:10:17;;;;;;;;;;;;;;;28.96;60.74;99700.38;4311628;33;791713;-83
2022/05/21 11:12:50;;;;;;;;;;;;;;;28.92;60.75;99691.84;4336318;33;20034;-83
2022/05/21 11:15:18;;;;;;;;;;;;;;;28.51;60.72;99700.81;4336032;33;19999;-84
2022/05/21 11:18:01;;;;;;;;;;;;;;;28.46;60.72;99703.16;4349522;33;20762;-83
2022/05/21 11:20:36;;;;;;;;;;;;;;;28.30;60.72;99707.47;4349625;33;19979;-83
2022/05/21 11:23:01;;;;;;;;;;;;;;;28.14;60.71;99700.19;4336145;33;20046;-83
2022/05/21 11:25:31;;;;;;;;;;;;;;;28.35;60.72;99690.91;4349649;33;19987;-83
2022/05/21 11:28:21;;;;;;;;;;;;;;;28.51;60.72;99692.78;4323699;33;20042;-83
2022/05/21 11:30:46;;;;;;;;;;;;;;;28.48;60.73;99685.94;4336217;33;20075;-83
2022/05/21 11:38:51;;;;;;;;;;;;;;;28.35;60.71;99689.06;4338114;33;20007;-83
2022/05/21 11:41:28;;;;;;;;;;;;;;;28.33;60.72;99695.59;4336357;33;19992;-84
2022/05/21 11:43:56;;;;;;;;;;;;;;;28.39;60.72;99684.22;4325045;33;19995;-83
2022/05/21 11:46:33;;;;;;;;;;;;;;;28.30;60.72;99679.88;4349674;33;20379;-83
2022/05/21 11:48:58;;;;;;;;;;;;;;;28.52;60.72;99687.28;4335987;33;19979;-83
2022/05/21 11:51:24;;;;;;;;;;;;;;;28.40;60.72;99677.91;4335538;33;21829;-83
2022/05/21 11:53:49;;;;;;;;;;;;;;;28.35;60.71;99677.53;4336025;33;20293;-83
2022/05/21 11:56:14;;;;;;;;;;;;;;;28.36;60.72;99676.53;4335893;33;20024;-83
2022/05/21 11:58:58;;;;;;;;;;;;;;;28.30;60.72;99683.38;4348664;33;20020;-83
2022/05/21 12:01:36;;;;;;;;;;;;;;;28.54;60.73;99679.06;4349640;33;20027;-83
2022/05/21 12:04:01;;;;;;;;;;;;;;;28.58;60.73;99681.25;4349555;33;19991;-83
2022/05/21 12:06:29;;;;;;;;;;;;;;;28.68;60.73;99681.09;4335846;33;20325;-84
2022/05/21 12:09:06;;;;;;;;;;;;;;;28.62;60.74;99681.75;4349683;33;19987;-84
2022/05/21 12:11:41;;;;;;;;;;;;;;;28.71;60.74;99664.69;4349628;33;19990;-83
2022/05/21 12:14:13;;;;;;;;;;;;;;;28.90;60.75;99664.38;4335915;33;20059;-84
2022/05/21 12:16:40;;;;;;;;;;;;;;;29.08;60.75;99672.22;4336143;33;20353;-83
2022/05/21 12:19:06;;;;;;;;;;;;;;;28.94;60.76;99664.88;4336124;33;19990;-83
2022/05/21 12:21:40;;;;;;;;;;;;;;;28.84;60.75;99670.38;4336156;33;19976;-83
2022/05/21 12:24:09;;;;;;;;;;;;;;;28.64;60.73;99675.25;4349536;33;20002;-84
2022/05/21 12:26:34;;;;;;;;;;;;;;;28.70;60.74;99666.53;4335954;33;20448;-83
2022/05/21 12:29:07;;;;;;;;;;;;;;;28.99;60.75;99668.72;4335895;33;20345;-85
2022/05/21 12:31:39;;;;;;;;;;;;;;;29.10;60.76;99658.66;4349591;33;20043;-84
2022/05/21 12:34:22;;;;;;;;;;;;;;;29.40;60.78;99665.13;4349625;33;19984;-83
2022/05/21 12:37:06;;;;;;;;;;;;;;;29.32;60.78;99655.25;4336042;33;20030;-83
2022/05/21 12:39:33;;;;;;;;;;;;;;;29.49;60.79;99667.63;4336050;33;19994;-83
2022/05/21 12:41:59;;;;;;;;;;;;;;;29.26;60.77;99654.09;4349764;33;20324;-83
2022/05/21 12:44:34;;;;;;;;;;;;;;;29.06;60.76;99663.50;4336130;33;19988;-83
2022/05/21 12:46:59;;;;;;;;;;;;;;;28.87;60.75;99656.69;4349680;33;20321;-84
2022/05/21 12:49:24;;;;;;;;;;;;;;;28.68;60.75;99652.47;4335997;33;19995;-84
2022/05/21 12:51:50;;;;;;;;;;;;;;;28.78;60.75;99660.31;4349472;33;19992;-85
2022/05/21 12:54:18;;;;;;;;;;;;;;;28.56;60.73;99661.81;4349561;33;19980;-84
2022/05/21 12:56:43;;;;;;;;;;;;;;;28.43;60.72;99672.22;4349476;33;19979;-84
2022/05/21 12:59:36;;;;;;;;;;;;;;;28.57;60.73;99658.16;4335721;33;20019;-84
2022/05/21 13:02:01;;;;;;;;;;;;;;;28.80;60.75;99657.47;4347349;33;19992;-84
2022/05/21 13:04:38;;;;;;;;;;;;;;;28.70;60.74;99652.31;4335564;33;20039;-84
2022/05/21 13:07:07;;;;;;;;;;;;;;;28.79;60.75;99647.78;4335943;33;20005;-83
2022/05/21 13:09:35;;;;;;;;;;;;;;;28.45;60.73;99654.12;4347612;33;20043;-84
2022/05/21 13:12:02;;;;;;;;;;;;;;;28.53;60.74;99650.63;4335745;33;19994;-84
2022/05/21 13:14:30;;;;;;;;;;;;;;;28.71;60.74;99657.50;4335771;33;19984;-84
2022/05/21 13:16:57;;;;;;;;;;;;;;;28.53;60.74;99650.63;4349371;33;19991;-84
2022/05/21 13:19:29;;;;;;;;;;;;;;;28.37;60.73;99652.25;4335962;33;19984;-83
2022/05/21 13:21:54;;;;;;;;;;;;;;;28.18;60.72;99657.91;4349222;33;20313;-84
2022/05/21 13:24:19;;;;;;;;;;;;;;;28.23;60.72;99655.56;4349240;33;19987;-84